Time;durP1;ratioP1;P1;durP2;ratioP2;P2;SDS_P1;SDS_P2;PMS_P1;PMS_P2;Temp;Humidity;BMP_temperature;BMP_pressure;BME280_temperature;BME280_humidity;BME280_pressure;Samples;Min_cycle;Max_cycle;Signal;HPM_P1;HPM_P2
2022/07/19 00:02:45;;;;;;;17.00;11.20;;;;;;;19.52;57.21;101003.77;108948;1273;22299;-81
2022/07/19 00:05:54;;;;;;;18.90;11.40;;;;;;;19.51;57.29;100995.91;108998;1270;22461;-81
2022/07/19 00:08:44;;;;;;;18.80;11.90;;;;;;;19.47;57.19;101004.08;108955;1272;23777;-81
2022/07/19 00:11:32;;;;;;;18.00;12.80;;;;;;;19.44;57.31;101013.81;108764;1273;22754;-81
2022/07/19 00:14:49;;;;;;;17.40;11.50;;;;;;;19.40;57.54;101013.87;108621;1273;21981;-81
2022/07/19 00:22:35;;;;;;;;;;;;;;;;;;;;;
2022/07/19 00:26:13;;;;;;;;;;;;;;;;;;;;;
2022/07/19 00:29:35;;;;;;;;;;;;;;;;;;;;;
2022/07/19 00:32:18;;;;;;;13.70;9.60;;;;;;;19.20;58.47;101017.41;107364;1292;22031;-82
2022/07/19 00:35:17;;;;;;;16.20;10.70;;;;;;;19.15;58.72;101017.05;107343;1292;22070;-81
2022/07/19 00:41:37;;;;;;;16.80;10.00;;;;;;;19.00;59.08;101005.15;107680;1286;22018;-81
2022/07/19 00:44:40;;;;;;;18.20;11.40;;;;;;;18.97;59.43;101000.46;107935;1284;23599;-82
2022/07/19 00:47:33;;;;;;;17.90;12.30;;;;;;;18.97;59.76;101002.98;107438;1289;22029;-82
2022/07/19 00:50:29;;;;;;;19.00;12.50;;;;;;;18.97;59.77;100994.73;107169;1293;22317;-82
2022/07/19 00:53:02;;;;;;;17.40;11.60;;;;;;;18.95;59.58;100990.37;107320;1288;22617;-81
2022/07/19 00:56:13;;;;;;;15.90;12.00;;;;;;;18.90;59.39;100993.51;107912;1284;22163;-82
2022/07/19 00:59:45;;;;;;;19.50;12.20;;;;;;;18.81;59.39;100990.46;107966;1283;22001;-80
2022/07/19 01:02:37;;;;;;;15.50;11.50;;;;;;;18.72;59.20;100985.42;107968;1283;22048;-81
2022/07/19 01:05:30;;;;;;;19.20;10.40;;;;;;;18.62;59.29;100989.52;108308;1280;23098;-80
2022/07/19 01:08:52;;;;;;;15.30;10.00;;;;;;;18.53;59.61;100990.63;108181;1279;22078;-81
2022/07/19 01:11:31;;;;;;;;;;;;;;;18.48;59.71;100995.68;107743;1286;24307;-80
2022/07/19 01:14:13;;;;;;;22.00;10.70;;;;;;;18.38;60.03;100996.41;107871;1286;22935;-81
2022/07/19 01:16:58;;;;;;;12.10;10.10;;;;;;;18.38;60.25;100995.09;108018;1283;23637;-80
2022/07/19 01:19:48;;;;;;;16.20;11.00;;;;;;;18.40;60.28;100994.89;108354;1281;23709;-80
2022/07/19 01:22:44;;;;;;;15.70;11.70;;;;;;;18.40;60.36;100996.42;108316;1278;23086;-81
2022/07/19 01:25:25;;;;;;;19.20;13.30;;;;;;;18.41;60.55;101000.25;108543;1278;23167;-82
2022/07/19 01:28:10;;;;;;;21.70;10.70;;;;;;;18.42;60.80;100993.73;108456;1278;23729;-80
2022/07/19 01:30:44;;;;;;;15.50;10.80;;;;;;;18.42;60.70;100988.39;108517;1276;22739;-80
2022/07/19 01:33:17;;;;;;;16.10;11.50;;;;;;;18.41;60.55;100985.76;108614;1277;22002;-81
2022/07/19 01:36:05;;;;;;;14.80;11.50;;;;;;;18.40;60.58;100989.00;108573;1277;22005;-80
2022/07/19 01:38:43;;;;;;;17.40;11.20;;;;;;;18.39;60.60;100992.88;108675;1273;22067;-80
2022/07/19 01:41:31;;;;;;;17.30;11.40;;;;;;;18.37;60.65;100991.89;108933;1273;21996;-78
2022/07/19 01:44:14;;;;;;;20.50;10.40;;;;;;;18.33;60.45;100993.44;108968;1270;22001;-79
2022/07/19 01:47:06;;;;;;;;;;;;;;;;;;;;;
2022/07/19 01:49:42;;;;;;;20.00;12.40;;;;;;;18.21;60.69;100988.60;108693;1273;21986;-80
2022/07/19 01:52:44;;;;;;;14.70;11.50;;;;;;;18.17;60.83;100983.73;108703;1275;22393;-80
2022/07/19 01:55:36;;;;;;;16.50;11.70;;;;;;;18.16;60.89;100981.34;108613;1273;22009;-80
2022/07/19 01:58:28;;;;;;;16.90;11.90;;;;;;;18.18;60.99;100979.25;108313;1278;22792;-80
2022/07/19 02:01:27;;;;;;;17.40;11.60;;;;;;;18.16;60.90;100977.19;108351;1278;21993;-80
2022/07/19 02:04:13;;;;;;;15.60;11.10;;;;;;;18.11;60.84;100972.23;108145;1278;23736;-81
2022/07/19 02:07:05;;;;;;;14.00;11.40;;;;;;;18.06;60.82;100972.73;108305;1280;22034;-80
2022/07/19 02:09:52;;;;;;;17.10;11.40;;;;;;;18.04;61.19;100974.58;108251;1276;22132;-79
2022/07/19 02:12:26;;;;;;;16.30;10.90;;;;;;;18.03;61.15;100974.08;108510;1276;21995;-74
2022/07/19 02:14:58;;;;;;;20.70;11.20;;;;;;;18.01;61.11;100975.34;108337;1276;21991;-76
2022/07/19 02:17:32;;;;;;;;;;;;;;;17.99;61.03;100973.56;108754;1270;23757;-81
2022/07/19 02:20:17;;;;;;;16.10;10.50;;;;;;;17.87;61.30;100972.63;108708;1275;23946;-81
2022/07/19 02:23:44;;;;;;;15.50;11.50;;;;;;;17.84;61.15;100971.84;108479;1279;22481;-81
2022/07/19 02:27:09;;;;;;;16.40;10.00;;;;;;;17.79;60.86;100973.09;107867;1288;22021;-80
2022/07/19 02:30:21;;;;;;;14.90;11.50;;;;;;;17.73;60.64;100971.11;107862;1287;23163;-81
2022/07/19 02:33:34;;;;;;;;;;;;;;;;;;;;;
2022/07/19 02:36:43;;;;;;;14.30;10.40;;;;;;;17.71;60.58;100969.45;106655;1297;23802;-79
2022/07/19 02:39:17;;;;;;;17.70;11.70;;;;;;;17.69;60.46;100974.42;107026;1293;23659;-81
2022/07/19 02:41:46;;;;;;;14.00;10.20;;;;;;;17.66;60.49;100977.45;107294;1290;22007;-80
2022/07/19 02:44:20;;;;;;;14.00;10.40;;;;;;;17.66;60.45;100976.84;107514;1287;22101;-80
2022/07/19 02:46:55;;;;;;;14.20;10.10;;;;;;;17.66;60.30;100977.20;107805;1287;22049;-81
2022/07/19 02:49:33;;;;;;;9.10;8.20;;;;;;;17.69;60.18;100973.80;107722;1287;23887;-80
2022/07/19 02:52:05;;;;;;;12.60;9.10;;;;;;;17.72;60.32;100970.23;107595;1287;22079;-81
2022/07/19 02:54:41;;;;;;;16.00;9.30;;;;;;;17.73;60.48;100968.81;107587;1279;22007;-81
2022/07/19 02:57:22;;;;;;;17.70;11.50;;;;;;;17.75;60.58;100971.95;107626;1285;23733;-79
2022/07/19 02:59:59;;;;;;;13.60;10.30;;;;;;;17.73;60.56;100970.38;107738;1286;22993;-82
2022/07/19 03:06:48;;;;;;;;;;;;;;;;;;;;;
2022/07/19 03:11:03;;;;;;;14.10;11.90;;;;;;;17.60;60.44;100962.99;107767;1286;24337;-81
2022/07/19 03:15:18;;;;;;;16.10;11.20;;;;;;;17.59;60.34;100961.89;107922;1283;23834;-81
2022/07/19 03:19:30;;;;;;;13.90;11.60;;;;;;;17.61;60.13;100964.44;107736;1288;23624;-81
2022/07/19 03:23:03;;;;;;;13.60;12.20;;;;;;;17.67;59.99;100963.23;107702;1288;22024;-82
2022/07/19 03:26:11;;;;;;;;;;;;;;;;;;;;;
2022/07/19 03:28:58;;;;;;;20.80;14.80;;;;;;;17.74;59.53;100964.29;107554;1288;23160;-80
2022/07/19 03:31:43;;;;;;;24.10;15.60;;;;;;;17.76;59.47;100962.62;107890;1288;22383;-80
2022/07/19 03:34:13;;;;;;;24.20;16.40;;;;;;;17.82;59.41;100960.89;107611;1286;23631;-79
2022/07/19 03:36:43;;;;;;;30.60;18.40;;;;;;;17.86;59.20;100963.38;107556;1288;22854;-80
2022/07/19 03:39:28;;;;;;;24.70;18.30;;;;;;;17.91;59.12;100963.67;107852;1288;22097;-80
2022/07/19 03:42:23;;;;;;;23.20;18.90;;;;;;;17.95;58.96;100956.20;107836;1288;23734;-81
2022/07/19 03:44:59;;;;;;;18.80;16.30;;;;;;;17.98;58.79;100956.67;107859;1285;23639;-79
2022/07/19 03:51:13;;;;;;;19.20;15.10;;;;;;;18.01;58.81;100964.31;107830;1286;24012;-80
2022/07/19 03:54:01;;;;;;;21.10;17.90;;;;;;;18.02;58.54;100963.42;107887;1286;22010;-83
2022/07/19 03:56:35;;;;;;;17.60;15.80;;;;;;;18.05;58.52;100961.88;108064;1283;22309;-82
2022/07/19 03:59:25;;;;;;;18.30;14.90;;;;;;;18.07;58.40;100962.12;108046;1284;22013;-81
2022/07/19 04:03:13;;;;;;;;;;;;;;;;;;;;;
2022/07/19 04:06:53;;;;;;;;;;;;;;;;;;;;;
2022/07/19 04:11:06;;;;;;;;;;;;;;;;;;;;;
2022/07/19 04:14:37;;;;;;;;;;;;;;;;;;;;;
2022/07/19 04:18:08;;;;;;;;;;;;;;;;;;;;;
2022/07/19 04:21:27;;;;;;;12.40;11.10;;;;;;;18.40;57.97;100980.03;108540;1279;22513;-80
2022/07/19 04:28:59;;;;;;;;;;;;;;;;;;;;;
2022/07/19 04:32:05;;;;;;;;;;;;;;;;;;;;;
2022/07/19 04:34:45;;;;;;;14.60;8.70;;;;;;;18.63;57.14;100984.29;106668;1297;23068;-79
2022/07/19 04:37:12;;;;;;;15.70;8.50;;;;;;;18.72;57.04;100980.64;106229;1299;23835;-79
2022/07/19 04:39:42;;;;;;;12.80;9.50;;;;;;;18.78;56.95;100975.52;106561;1297;24172;-79
2022/07/19 04:42:38;;;;;;;;;;;;;;;;;;;;;
2022/07/19 04:45:53;;;;;;;13.80;11.50;;;;;;;18.80;56.54;100972.34;107826;1285;22122;-82
2022/07/19 04:49:01;;;;;;;17.20;11.70;;;;;;;18.77;56.63;100975.34;108148;1283;22012;-80
2022/07/19 04:51:32;;;;;;;15.10;11.80;;;;;;;18.77;56.69;100974.94;108022;1279;22048;-82
2022/07/19 04:54:13;;;;;;;13.90;11.10;;;;;;;18.81;56.69;100973.54;108237;1279;21994;-79
2022/07/19 04:56:48;;;;;;;14.50;10.30;;;;;;;18.82;56.60;100974.48;108316;1279;23047;-79
2022/07/19 04:59:21;;;;;;;17.00;11.30;;;;;;;18.83;56.73;100972.17;108065;1279;22009;-80
2022/07/19 05:02:33;;;;;;;14.30;10.70;;;;;;;18.84;56.97;100971.85;108206;1283;22005;-79
2022/07/19 05:05:39;;;;;;;11.90;10.40;;;;;;;18.86;57.26;100969.98;108379;1279;23068;-79
2022/07/19 05:08:39;;;;;;;13.30;10.30;;;;;;;18.90;57.38;100971.05;108434;1279;22606;-82
2022/07/19 05:14:35;;;;;;;13.60;11.40;;;;;;;19.02;57.66;100977.76;108649;1276;23853;-81
2022/07/19 05:17:12;;;;;;;13.00;10.60;;;;;;;19.08;57.70;100980.52;108637;1273;24367;-81
2022/07/19 05:20:10;;;;;;;15.50;9.80;;;;;;;19.14;57.59;100985.08;108587;1273;22383;-81
2022/07/19 05:22:44;;;;;;;14.30;10.30;;;;;;;19.15;57.29;100986.85;108265;1279;22059;-81
2022/07/19 05:25:42;;;;;;;14.00;9.40;;;;;;;19.18;57.42;100985.07;108539;1279;21980;-80
2022/07/19 05:29:20;;;;;;;14.10;9.70;;;;;;;19.24;57.63;100989.05;108442;1279;23647;-80
2022/07/19 05:31:56;;;;;;;18.00;11.00;;;;;;;19.32;57.62;100988.17;108274;1278;23610;-80
2022/07/19 05:34:30;;;;;;;14.50;10.90;;;;;;;19.41;57.55;100983.20;108258;1283;22791;-79
2022/07/19 05:37:03;;;;;;;18.20;13.20;;;;;;;19.50;57.36;100983.05;107755;1282;22021;-79
2022/07/19 05:39:46;;;;;;;17.00;11.00;;;;;;;19.57;57.42;100981.33;107940;1283;23653;-80
2022/07/19 05:43:05;;;;;;;17.00;11.60;;;;;;;19.61;57.31;100981.98;107805;1285;24526;-79
2022/07/19 05:46:07;;;;;;;17.60;11.70;;;;;;;19.60;57.37;100981.23;107366;1287;22084;-80
2022/07/19 05:48:48;;;;;;;15.00;10.10;;;;;;;19.63;57.27;100979.92;107492;1291;24645;-80
2022/07/19 05:51:27;;;;;;;23.50;11.10;;;;;;;19.63;57.30;100981.56;107362;1289;22180;-80
2022/07/19 05:54:00;;;;;;;20.60;10.00;;;;;;;19.66;57.56;100986.47;107588;1289;23086;-77
2022/07/19 05:56:30;;;;;;;14.30;10.20;;;;;;;19.72;57.54;100987.83;107712;1286;23111;-78
2022/07/19 05:59:06;;;;;;;19.00;10.50;;;;;;;19.81;57.68;100985.95;107631;1286;22813;-78
2022/07/19 06:01:35;;;;;;;14.50;11.30;;;;;;;19.91;57.69;100984.15;107908;1283;21991;-76
2022/07/19 06:04:06;;;;;;;12.50;9.30;;;;;;;19.99;57.62;100981.11;107807;1280;22802;-77
2022/07/19 06:06:35;;;;;;;16.60;10.40;;;;;;;20.06;57.83;100981.72;108434;1276;22223;-77
2022/07/19 06:09:05;;;;;;;18.00;9.90;;;;;;;20.11;57.63;100983.84;108458;1273;22756;-77
2022/07/19 06:11:34;;;;;;;15.30;9.90;;;;;;;20.18;57.62;100985.48;108654;1273;21992;-77
2022/07/19 06:14:05;;;;;;;14.90;10.80;;;;;;;20.28;57.56;100987.85;108651;1273;23712;-77
2022/07/19 06:16:44;;;;;;;14.40;9.80;;;;;;;20.39;57.42;100985.69;108706;1273;21987;-80
2022/07/19 06:19:18;;;;;;;12.60;9.50;;;;;;;20.49;57.33;100987.80;108763;1270;21997;-80
2022/07/19 06:21:53;;;;;;;;;;;;;;;20.61;57.23;100989.72;108802;1270;23846;-85
2022/07/19 06:24:26;;;;;;;12.60;8.60;;;;;;;20.73;57.76;100990.55;109100;1273;22015;-87
2022/07/19 06:26:59;;;;;;;12.60;9.80;;;;;;;21.02;58.00;100987.80;108671;1276;22006;-83
2022/07/19 06:29:38;;;;;;;17.50;9.50;;;;;;;21.36;57.68;100990.73;108646;1273;22096;-83
2022/07/19 06:32:07;;;;;;;13.60;10.40;;;;;;;21.72;57.07;100993.52;108379;1276;21994;-80
2022/07/19 06:34:37;;;;;;;13.20;10.50;;;;;;;22.03;56.40;100998.13;108591;1277;23095;-80
2022/07/19 06:37:08;;;;;;;16.60;9.80;;;;;;;22.39;56.20;100993.83;108333;1276;23125;-80
2022/07/19 06:39:37;;;;;;;14.40;9.80;;;;;;;22.88;56.26;100998.48;108325;1277;22050;-81
2022/07/19 06:42:06;;;;;;;16.50;9.50;;;;;;;23.52;55.69;100997.29;108423;1276;23159;-81
2022/07/19 06:44:36;;;;;;;16.50;10.80;;;;;;;24.10;54.05;100995.54;108543;1276;23058;-81
2022/07/19 06:47:05;;;;;;;17.20;8.60;;;;;;;24.73;52.92;100991.66;108645;1273;24401;-81
2022/07/19 06:49:34;;;;;;;15.20;7.00;;;;;;;25.34;50.90;100987.98;108879;1273;22069;-80
2022/07/19 06:52:03;;;;;;;8.10;4.80;;;;;;;25.90;48.76;100987.45;108237;1279;22070;-80
2022/07/19 06:54:41;;;;;;;10.70;4.20;;;;;;;26.44;45.94;100985.80;108253;1279;22057;-81
2022/07/19 06:57:10;;;;;;;11.90;5.00;;;;;;;26.97;44.20;100992.30;108603;1274;22957;-80
2022/07/19 06:59:40;;;;;;;12.90;4.50;;;;;;;27.41;41.82;100997.02;108378;1274;23031;-81
2022/07/19 07:02:09;;;;;;;7.70;3.90;;;;;;;27.88;40.80;100996.83;108434;1276;23145;-80
2022/07/19 07:04:38;;;;;;;6.70;3.40;;;;;;;28.34;38.97;100993.67;108574;1273;23123;-81
2022/07/19 07:07:16;;;;;;;6.90;3.70;;;;;;;28.67;38.09;100994.34;108653;1273;22067;-80
2022/07/19 07:09:45;;;;;;;7.50;3.90;;;;;;;29.00;37.27;100991.15;108950;1270;23757;-80
2022/07/19 07:12:14;;;;;;;7.40;3.50;;;;;;;29.34;36.64;100992.20;109000;1270;21990;-81
2022/07/19 07:14:44;;;;;;;9.50;3.30;;;;;;;29.67;35.76;100990.52;108798;1270;23742;-80
2022/07/19 07:17:12;;;;;;;8.40;3.60;;;;;;;30.01;35.01;100987.67;108749;1273;22838;-81
2022/07/19 07:19:42;;;;;;;4.90;3.20;;;;;;;30.31;34.10;100987.04;108849;1270;22012;-81
2022/07/19 07:22:11;;;;;;;9.20;3.60;;;;;;;30.66;33.39;100986.85;109088;1270;21981;-81
2022/07/19 07:24:47;;;;;;;5.70;3.30;;;;;;;31.03;32.36;100982.95;108991;1270;22012;-80
2022/07/19 07:27:16;;;;;;;5.80;3.20;;;;;;;31.33;31.51;100982.38;108849;1270;21972;-80
2022/07/19 07:29:45;;;;;;;8.50;3.20;;;;;;;31.51;30.74;100983.73;109126;1269;22522;-80
2022/07/19 07:32:17;;;;;;;3.90;2.80;;;;;;;31.68;30.69;100985.70;108652;1273;22026;-80
2022/07/19 07:34:47;;;;;;;19.90;11.20;;;;;;;31.79;30.19;100981.83;108730;1273;23066;-80
2022/07/19 07:37:16;;;;;;;11.30;4.10;;;;;;;31.98;30.23;100983.72;108475;1273;23068;-82
2022/07/19 07:39:45;;;;;;;8.20;2.80;;;;;;;32.14;29.62;100987.45;108710;1273;22170;-80
2022/07/19 07:42:14;;;;;;;13.10;2.90;;;;;;;32.38;28.94;100987.41;108827;1273;23787;-80
2022/07/19 07:44:46;;;;;;;4.30;2.80;;;;;;;32.55;27.73;100989.71;108721;1273;22015;-80
2022/07/19 07:47:15;;;;;;;5.40;2.70;;;;;;;32.62;27.25;100989.10;108674;1276;22743;-80
2022/07/19 07:49:47;;;;;;;5.00;2.40;;;;;;;32.63;26.44;100991.17;108774;1271;23745;-81
2022/07/19 07:52:16;;;;;;;7.10;2.60;;;;;;;32.65;26.44;100991.70;109104;1270;21972;-81
2022/07/19 07:54:52;;;;;;;5.30;2.70;;;;;;;32.71;26.28;100989.05;109102;1270;23298;-81
2022/07/19 07:57:51;;;;;;;5.30;2.50;;;;;;;32.80;25.79;100990.86;109067;1270;21998;-80
2022/07/19 08:00:24;;;;;;;4.90;2.60;;;;;;;32.86;25.73;100988.08;109087;1269;21994;-80
2022/07/19 08:02:57;;;;;;;10.50;3.70;;;;;;;32.99;25.50;100986.33;108572;1275;23631;-80
2022/07/19 08:05:33;;;;;;;5.80;2.90;;;;;;;33.07;25.13;100988.07;108747;1273;21990;-79
2022/07/19 08:08:03;;;;;;;6.90;3.80;;;;;;;33.21;24.87;100983.02;108714;1274;21991;-81
2022/07/19 08:10:33;;;;;;;5.90;3.20;;;;;;;33.28;24.53;100983.08;108637;1275;21985;-80
2022/07/19 08:13:05;;;;;;;4.80;2.80;;;;;;;33.33;24.80;100985.96;108508;1278;22166;-80
2022/07/19 08:15:41;;;;;;;5.10;2.60;;;;;;;33.52;24.68;100982.38;108433;1281;23063;-81
2022/07/19 08:18:12;;;;;;;7.60;2.60;;;;;;;33.79;23.90;100981.67;108486;1278;23887;-80
2022/07/19 08:20:43;;;;;;;4.00;2.70;;;;;;;33.90;22.94;100977.47;108538;1275;23623;-79
2022/07/19 08:23:19;;;;;;;5.20;2.80;;;;;;;33.94;22.81;100976.98;108668;1276;22003;-80
2022/07/19 08:25:51;;;;;;;4.70;2.50;;;;;;;34.11;22.61;100974.41;108670;1276;21991;-80
2022/07/19 08:28:21;;;;;;;5.10;2.80;;;;;;;34.24;22.13;100975.38;108529;1276;22007;-79
2022/07/19 08:31:02;;;;;;;5.40;2.30;;;;;;;34.25;22.27;100973.39;108679;1273;23606;-79
2022/07/19 08:33:41;;;;;;;5.70;2.60;;;;;;;34.41;22.18;100969.63;108326;1273;21985;-80
2022/07/19 08:36:13;;;;;;;5.90;4.20;;;;;;;34.60;22.04;100965.75;108720;1273;23780;-80
2022/07/19 08:38:43;;;;;;;7.60;3.60;;;;;;;34.81;21.66;100968.34;108464;1276;22023;-81
2022/07/19 08:41:14;;;;;;;7.80;3.00;;;;;;;34.89;21.57;100966.64;108549;1276;22498;-80
2022/07/19 08:43:46;;;;;;;5.10;2.60;;;;;;;34.99;21.41;100968.55;108496;1276;23153;-79
2022/07/19 08:46:20;;;;;;;5.10;2.90;;;;;;;34.96;21.27;100970.55;108442;1276;22040;-80
2022/07/19 08:48:57;;;;;;;6.70;3.10;;;;;;;34.99;21.32;100964.38;108503;1273;22042;-81
2022/07/19 08:51:35;;;;;;;7.00;3.10;;;;;;;34.90;21.20;100961.16;109037;1270;22014;-80
2022/07/19 08:54:05;;;;;;;8.50;2.70;;;;;;;34.95;21.56;100963.24;108742;1276;22963;-81
2022/07/19 08:59:23;;;;;;;6.60;3.80;;;;;;;35.14;20.16;100958.20;108878;1270;23716;-82
2022/07/19 09:01:52;;;;;;;5.90;3.20;;;;;;;35.11;20.56;100961.52;109019;1270;22102;-81
2022/07/19 09:04:25;;;;;;;3.80;2.70;;;;;;;35.09;20.72;100961.09;108923;1270;23049;-81
2022/07/19 09:06:56;;;;;;;4.60;2.60;;;;;;;35.05;20.85;100956.49;108891;1270;23075;-81
2022/07/19 09:09:34;;;;;;;4.10;2.60;;;;;;;35.19;20.70;100955.91;108862;1270;23672;-81
2022/07/19 09:12:17;;;;;;;5.20;2.40;;;;;;;35.29;20.66;100955.59;108609;1274;23832;-81
2022/07/19 09:14:53;;;;;;;11.80;3.70;;;;;;;35.35;20.57;100956.02;108534;1279;22938;-81
2022/07/19 09:17:29;;;;;;;4.80;3.20;;;;;;;35.47;20.05;100953.39;108552;1278;22000;-82
2022/07/19 09:20:06;;;;;;;3.70;2.40;;;;;;;35.60;19.89;100950.55;108767;1272;21953;-80
2022/07/19 09:22:38;;;;;;;5.40;2.80;;;;;;;35.60;19.69;100945.60;108921;1272;21998;-79
2022/07/19 09:25:10;;;;;;;5.00;2.30;;;;;;;35.41;19.50;100940.45;108980;1273;22352;-81
2022/07/19 09:27:59;;;;;;;8.20;2.80;;;;;;;35.26;19.31;100939.73;109020;1272;22860;-81
2022/07/19 09:30:39;;;;;;;4.60;2.40;;;;;;;35.19;20.00;100944.58;109037;1266;24347;-81
2022/07/19 09:33:22;;;;;;;4.30;2.10;;;;;;;35.22;20.04;100944.73;109379;1263;23061;-81
2022/07/19 09:35:57;;;;;;;4.90;2.20;;;;;;;35.27;20.08;100945.30;109021;1269;24313;-82
2022/07/19 09:38:33;;;;;;;8.20;2.80;;;;;;;35.32;19.42;100941.25;108893;1273;21982;-80
2022/07/19 09:41:16;;;;;;;3.50;2.40;;;;;;;35.35;19.56;100939.95;108757;1273;22028;-80
2022/07/19 09:44:05;;;;;;;4.30;2.80;;;;;;;35.41;19.38;100938.42;108889;1273;22011;-81
2022/07/19 09:46:38;;;;;;;15.60;5.10;;;;;;;35.51;19.53;100937.58;108874;1273;21992;-81
2022/07/19 09:49:14;;;;;;;6.40;2.70;;;;;;;35.68;18.85;100932.48;108949;1273;21998;-81
2022/07/19 09:51:50;;;;;;;3.40;2.70;;;;;;;35.66;18.83;100930.00;108751;1273;21995;-81
2022/07/19 09:54:22;;;;;;;4.40;2.40;;;;;;;35.57;18.69;100927.57;109160;1267;22071;-81
2022/07/19 09:56:54;;;;;;;3.90;2.70;;;;;;;35.49;18.73;100926.24;109068;1267;21982;-80
2022/07/19 09:59:26;;;;;;;4.10;2.60;;;;;;;35.43;18.78;100924.67;109107;1267;22039;-81
2022/07/19 10:01:59;;;;;;;5.50;2.60;;;;;;;35.41;19.21;100925.06;109007;1270;23170;-82
2022/07/19 10:04:33;;;;;;;6.50;2.40;;;;;;;35.39;19.56;100924.52;109139;1266;23748;-82
2022/07/19 10:07:08;;;;;;;5.90;3.00;;;;;;;35.37;19.53;100925.42;109058;1269;22250;-83
2022/07/19 10:09:40;;;;;;;4.70;2.60;;;;;;;35.32;19.46;100923.57;109159;1267;22047;-81
2022/07/19 10:12:12;;;;;;;4.60;2.50;;;;;;;35.30;19.27;100921.66;109177;1267;22018;-81
2022/07/19 10:14:56;;;;;;;15.10;3.10;;;;;;;35.15;19.45;100920.55;109214;1267;22048;-82
2022/07/19 10:17:41;;;;;;;4.70;3.30;;;;;;;35.03;19.45;100919.84;109166;1267;22074;-82
2022/07/19 10:20:16;;;;;;;9.10;2.60;;;;;;;34.96;19.90;100914.35;109001;1267;21968;-82
2022/07/19 10:22:49;;;;;;;3.10;2.30;;;;;;;34.88;20.31;100904.89;109597;1262;22784;-82
2022/07/19 10:25:19;;;;;;;5.90;2.60;;;;;;;34.89;20.31;100901.24;109707;1263;22021;-80
2022/07/19 10:27:54;;;;;;;7.30;2.60;;;;;;;34.90;20.45;100904.91;109669;1263;21975;-82
2022/07/19 10:30:41;;;;;;;6.70;2.80;;;;;;;34.92;20.16;100906.21;109409;1263;23145;-82
2022/07/19 10:33:32;;;;;;;6.10;3.00;;;;;;;34.87;19.93;100900.36;109797;1263;22351;-81
2022/07/19 10:36:40;;;;;;;6.60;3.30;;;;;;;34.71;19.95;100898.13;109118;1267;23939;-80
2022/07/19 10:39:18;;;;;;;5.90;3.80;;;;;;;34.57;20.31;100895.54;109116;1267;23652;-81
2022/07/19 10:42:21;;;;;;;12.90;9.30;;;;;;;34.51;19.91;100895.60;109316;1266;22749;-82
2022/07/19 10:45:01;;;;;;;5.80;3.20;;;;;;;34.43;19.90;100893.86;109368;1267;21993;-83
2022/07/19 10:48:04;;;;;;;5.40;2.80;;;;;;;34.38;20.68;100888.68;109262;1266;23702;-81
2022/07/19 10:50:50;;;;;;;;;;;;;;;34.29;20.64;100886.64;108775;1273;21981;-82
2022/07/19 10:53:41;;;;;;;6.80;3.20;;;;;;;34.07;20.61;100890.53;108520;1276;22408;-79
2022/07/19 10:56:23;;;;;;;4.50;2.10;;;;;;;33.91;20.62;100889.86;108333;1277;22007;-80
2022/07/19 10:58:59;;;;;;;5.30;3.30;;;;;;;33.78;20.49;100890.21;108446;1279;22085;-79
2022/07/19 11:01:32;;;;;;;5.90;2.40;;;;;;;33.66;20.56;100889.86;108434;1279;23900;-82
2022/07/19 11:04:32;;;;;;;10.60;2.70;;;;;;;33.53;20.52;100885.12;108480;1279;21992;-81
2022/07/19 11:07:30;;;;;;;4.00;2.10;;;;;;;33.37;20.69;100880.59;108537;1279;22013;-80
2022/07/19 11:10:02;;;;;;;6.30;3.30;;;;;;;33.20;21.46;100879.53;108064;1285;22129;-79
2022/07/19 11:12:48;;;;;;;15.90;3.40;;;;;;;32.87;22.23;100884.30;108099;1279;23641;-84
2022/07/19 11:15:35;;;;;;;6.90;3.70;;;;;;;32.51;22.90;100889.91;108585;1279;23791;-83
2022/07/19 11:18:19;;;;;;;5.70;2.70;;;;;;;32.39;22.78;100883.11;108524;1279;22049;-79
2022/07/19 11:20:49;;;;;;;4.30;2.80;;;;;;;32.42;22.49;100879.63;108322;1279;22100;-81
2022/07/19 11:23:23;;;;;;;4.90;2.40;;;;;;;32.45;22.34;100879.09;108287;1279;21997;-80
2022/07/19 11:26:08;;;;;;;5.20;2.80;;;;;;;32.43;22.34;100881.08;108437;1279;22448;-79
2022/07/19 11:28:42;;;;;;;5.00;2.60;;;;;;;32.37;22.09;100877.61;108583;1275;22001;-81
2022/07/19 11:31:24;;;;;;;8.80;3.30;;;;;;;32.34;22.05;100872.52;108735;1275;22887;-78
2022/07/19 11:33:59;;;;;;;3.80;2.50;;;;;;;32.32;21.81;100871.78;108854;1270;24488;-81
2022/07/19 11:36:28;;;;;;;10.70;3.10;;;;;;;32.28;21.87;100870.63;108989;1270;23770;-79
2022/07/19 11:38:58;;;;;;;6.20;2.70;;;;;;;32.20;21.87;100867.25;109119;1270;21946;-79
2022/07/19 11:41:34;;;;;;;8.80;2.80;;;;;;;32.17;22.09;100871.48;108956;1269;21979;-81
2022/07/19 11:44:09;;;;;;;6.50;2.90;;;;;;;32.09;22.01;100871.66;109142;1270;22020;-80
2022/07/19 11:46:43;;;;;;;5.50;2.70;;;;;;;32.07;22.36;100867.48;109447;1263;22738;-81
2022/07/19 11:49:15;;;;;;;5.80;2.70;;;;;;;32.08;22.40;100862.77;109201;1264;22283;-81
2022/07/19 11:51:45;;;;;;;8.70;2.80;;;;;;;32.11;22.22;100857.54;109735;1263;23661;-79
2022/07/19 11:54:14;;;;;;;5.60;2.70;;;;;;;32.14;22.19;100854.75;109731;1263;23692;-80
2022/07/19 11:56:44;;;;;;;4.90;2.40;;;;;;;32.17;22.35;100854.31;108970;1264;334990;-80
2022/07/19 11:59:14;;;;;;;;;;;;;;;32.14;22.24;100848.94;109719;1263;22076;-78
2022/07/19 12:01:46;;;;;;;5.30;2.70;;;;;;;32.05;22.35;100847.58;109444;1263;23033;-79
2022/07/19 12:04:15;;;;;;;9.00;3.10;;;;;;;32.02;22.37;100845.71;109171;1264;22000;-79
2022/07/19 12:06:48;;;;;;;7.90;5.10;;;;;;;31.99;22.47;100839.27;109215;1264;23800;-78
2022/07/19 12:09:27;;;;;;;7.00;3.00;;;;;;;31.96;22.25;100835.60;109130;1266;22103;-81
2022/07/19 12:11:57;;;;;;;5.70;3.30;;;;;;;31.97;22.32;100832.73;109263;1267;22102;-80
2022/07/19 12:14:37;;;;;;;5.70;3.10;;;;;;;31.99;22.58;100830.04;109148;1267;22005;-80
2022/07/19 12:17:21;;;;;;;4.70;3.00;;;;;;;31.97;22.56;100828.48;109148;1266;22017;-78
2022/07/19 12:20:07;;;;;;;7.30;3.70;;;;;;;31.93;22.52;100823.09;108979;1270;22007;-79
2022/07/19 12:23:19;;;;;;;5.30;2.60;;;;;;;31.89;22.35;100827.51;109005;1265;22017;-80
2022/07/19 12:25:49;;;;;;;6.90;2.60;;;;;;;31.86;22.54;100830.21;109205;1266;23791;-79
2022/07/19 12:28:26;;;;;;;6.30;4.00;;;;;;;31.88;22.80;100824.90;109059;1264;21983;-78
2022/07/19 12:31:09;;;;;;;5.20;3.40;;;;;;;31.91;22.42;100823.60;109183;1267;23595;-79
2022/07/19 12:33:40;;;;;;;7.40;3.50;;;;;;;31.92;22.44;100829.77;109153;1264;22289;-78
2022/07/19 12:36:09;;;;;;;3.90;2.80;;;;;;;31.95;22.42;100830.82;109359;1264;22065;-79
2022/07/19 12:38:38;;;;;;;5.80;3.20;;;;;;;31.93;22.04;100825.60;109549;1263;21980;-80
2022/07/19 12:41:14;;;;;;;6.90;3.50;;;;;;;31.92;21.99;100827.32;109196;1267;23611;-79
2022/07/19 12:43:43;;;;;;;5.70;3.10;;;;;;;31.93;22.08;100821.93;108674;1273;21990;-81
2022/07/19 12:46:12;;;;;;;7.70;3.00;;;;;;;31.94;22.20;100818.30;108324;1278;22008;-79
2022/07/19 12:48:41;;;;;;;6.30;2.70;;;;;;;31.89;22.23;100813.85;108258;1278;24411;-78
2022/07/19 12:51:10;;;;;;;6.20;2.90;;;;;;;31.87;22.31;100814.43;108254;1279;23170;-80
2022/07/19 12:53:41;;;;;;;7.00;3.40;;;;;;;31.85;22.54;100815.03;108117;1278;23618;-80
2022/07/19 12:56:10;;;;;;;4.80;3.30;;;;;;;31.86;22.37;100810.98;108273;1279;22010;-81
2022/07/19 13:01:27;;;;;;;7.40;3.60;;;;;;;31.76;22.98;100804.48;108438;1270;23588;-79
2022/07/19 13:03:58;;;;;;;5.50;3.20;;;;;;;31.55;23.83;100803.25;108766;1267;21981;-77
2022/07/19 13:06:27;;;;;;;5.50;3.20;;;;;;;31.39;23.81;100800.98;109363;1266;22049;-82
2022/07/19 13:08:59;;;;;;;6.00;3.70;;;;;;;31.35;23.89;100801.68;109391;1267;22095;-80
2022/07/19 13:11:30;;;;;;;8.60;4.30;;;;;;;31.31;23.91;100801.73;109379;1267;24482;-79
2022/07/19 13:13:59;;;;;;;8.50;3.50;;;;;;;31.22;23.94;100798.77;109456;1263;21978;-80
2022/07/19 13:16:29;;;;;;;7.80;4.10;;;;;;;31.10;24.16;100801.70;109830;1262;22008;-81